Time;durP1;ratioP1;P1;durP2;ratioP2;P2;SDS_P1;SDS_P2;PMS_P1;PMS_P2;Temp;Humidity;BMP_temperature;BMP_pressure;BME280_temperature;BME280_humidity;BME280_pressure;Samples;Min_cycle;Max_cycle;Signal;HPM_P1;HPM_P2
2022/11/01 00:01:01;;;;;;;;;;;13.20;84.90;;;;;;5042274;28;19924;-80
2022/11/01 00:03:27;;;;;;;;;;;13.20;85.00;;;;;;5041664;28;20598;-78
2022/11/01 00:05:52;;;;;;;;;;;13.20;84.90;;;;;;5028816;28;19925;-81
2022/11/01 00:08:18;;;;;;;;;;;13.20;84.90;;;;;;5037972;28;19918;-79
2022/11/01 00:10:43;;;;;;;;;;;13.20;85.00;;;;;;5027181;28;20289;-78
2022/11/01 00:13:09;;;;;;;;;;;13.20;84.90;;;;;;5041824;28;19962;-79
2022/11/01 00:15:34;;;;;;;;;;;13.20;85.00;;;;;;5040666;28;20390;-81
2022/11/01 00:17:59;;;;;;;;;;;13.20;84.90;;;;;;5044096;28;19917;-80
2022/11/01 00:20:25;;;;;;;;;;;13.20;85.00;;;;;;5026189;28;19921;-81
2022/11/01 00:22:50;;;;;;;;;;;13.20;84.90;;;;;;5013696;28;19917;-81
2022/11/01 00:25:16;;;;;;;;;;;13.20;84.90;;;;;;5038475;28;19925;-81
2022/11/01 00:27:41;;;;;;;;;;;13.20;84.90;;;;;;5041247;28;19924;-81
2022/11/01 00:30:07;;;;;;;;;;;13.20;84.90;;;;;;5025225;28;19952;-80
2022/11/01 00:32:32;;;;;;;;;;;13.20;84.90;;;;;;5025748;28;19936;-81
2022/11/01 00:34:58;;;;;;;;;;;13.30;85.00;;;;;;5024699;28;20133;-81
2022/11/01 00:37:23;;;;;;;;;;;13.20;84.90;;;;;;5022048;28;19949;-80
2022/11/01 00:39:49;;;;;;;;;;;13.20;84.90;;;;;;5039097;28;19916;-80
2022/11/01 00:42:14;;;;;;;;;;;13.20;84.90;;;;;;5042595;28;19968;-80
2022/11/01 00:44:40;;;;;;;;;;;13.20;84.90;;;;;;5038916;28;19916;-80
2022/11/01 00:47:05;;;;;;;;;;;13.20;84.90;;;;;;5037430;28;19975;-80
2022/11/01 00:49:31;;;;;;;;;;;13.20;84.90;;;;;;5023496;28;20412;-80
2022/11/01 00:51:56;;;;;;;;;;;13.20;84.90;;;;;;5041565;28;19921;-80
2022/11/01 00:54:22;;;;;;;;;;;13.20;84.90;;;;;;5026970;28;19996;-80
2022/11/01 00:56:47;;;;;;;;;;;13.20;85.00;;;;;;5042254;28;20271;-80
2022/11/01 00:59:13;;;;;;;;;;;13.20;84.90;;;;;;5041996;28;19917;-80
2022/11/01 01:01:38;;;;;;;;;;;13.20;84.90;;;;;;5041488;28;19974;-80
2022/11/01 01:04:04;;;;;;;;;;;13.20;84.90;;;;;;5025347;28;19940;-80
2022/11/01 01:06:29;;;;;;;;;;;13.20;84.90;;;;;;5014172;28;19929;-80
2022/11/01 01:08:59;;;;;;;;;;;13.20;84.90;;;;;;5041621;28;20043;-79
2022/11/01 01:11:25;;;;;;;;;;;13.20;84.90;;;;;;5025302;28;20010;-80
2022/11/01 01:13:50;;;;;;;;;;;13.20;84.90;;;;;;5027075;28;19920;-80
2022/11/01 01:16:16;;;;;;;;;;;13.30;85.10;;;;;;5040740;28;19988;-78
2022/11/01 01:18:41;;;;;;;;;;;13.20;84.90;;;;;;5006306;28;19917;-80
2022/11/01 01:21:07;;;;;;;;;;;13.20;84.90;;;;;;5026983;28;19921;-80
2022/11/01 01:23:32;;;;;;;;;;;13.20;84.90;;;;;;5026214;28;19924;-80
2022/11/01 01:25:58;;;;;;;;;;;13.20;85.00;;;;;;5027235;28;20466;-80
2022/11/01 01:28:23;;;;;;;;;;;13.20;85.00;;;;;;5042436;28;19917;-80
2022/11/01 01:30:49;;;;;;;;;;;13.20;85.00;;;;;;5044911;28;19947;-80
2022/11/01 01:33:14;;;;;;;;;;;13.20;84.90;;;;;;5027516;28;19912;-80
2022/11/01 01:35:40;;;;;;;;;;;13.20;85.00;;;;;;5026802;28;19924;-80
2022/11/01 01:38:05;;;;;;;;;;;13.20;85.00;;;;;;5030022;28;20382;-80
2022/11/01 01:40:31;;;;;;;;;;;13.20;85.00;;;;;;5014777;28;20036;-80
2022/11/01 01:42:56;;;;;;;;;;;13.20;85.00;;;;;;5046304;28;19916;-80
2022/11/01 01:45:30;;;;;;;;;;;13.20;85.00;;;;;;5042961;28;19974;-80
2022/11/01 01:47:57;;;;;;;;;;;13.20;85.00;;;;;;5043802;28;19944;-80
2022/11/01 01:50:28;;;;;;;;;;;13.20;85.10;;;;;;5023181;28;19956;-80
2022/11/01 01:52:58;;;;;;;;;;;13.20;85.00;;;;;;5045181;28;19920;-80
2022/11/01 01:55:26;;;;;;;;;;;13.20;85.10;;;;;;5042531;28;19955;-79
2022/11/01 01:57:51;;;;;;;;;;;13.20;85.00;;;;;;5044064;28;19931;-80
2022/11/01 02:00:17;;;;;;;;;;;13.20;85.00;;;;;;5025723;28;19921;-79
2022/11/01 02:02:43;;;;;;;;;;;13.20;85.10;;;;;;5044193;28;20317;-80
2022/11/01 02:05:10;;;;;;;;;;;13.20;85.00;;;;;;5042400;28;19963;-79
2022/11/01 02:07:35;;;;;;;;;;;13.20;85.10;;;;;;5040435;28;19921;-80
2022/11/01 02:10:01;;;;;;;;;;;13.20;85.00;;;;;;5040807;28;19923;-79
2022/11/01 02:12:29;;;;;;;;;;;13.20;85.10;;;;;;5028384;28;20317;-80
2022/11/01 02:14:54;;;;;;;;;;;13.20;85.10;;;;;;5027205;28;19932;-80
2022/11/01 02:17:30;;;;;;;;;;;13.20;85.10;;;;;;5038624;28;19931;-80
2022/11/01 02:20:02;;;;;;;;;;;13.20;85.10;;;;;;5023007;28;19978;-80
2022/11/01 02:22:46;;;;;;;;;;;13.20;85.10;;;;;;5028078;28;19940;-81
2022/11/01 02:25:22;;;;;;;;;;;13.10;85.10;;;;;;5045133;28;19924;-80
2022/11/01 02:27:51;;;;;;;;;;;13.10;85.00;;;;;;5043486;28;19920;-81
2022/11/01 02:30:17;;;;;;;;;;;13.10;85.00;;;;;;5043046;28;19966;-79
2022/11/01 02:32:45;;;;;;;;;;;13.10;85.10;;;;;;5024271;28;19917;-80
2022/11/01 02:35:30;;;;;;;;;;;13.10;85.10;;;;;;5042709;28;19920;-80
2022/11/01 02:38:14;;;;;;;;;;;13.20;85.10;;;;;;5042309;28;19921;-80
2022/11/01 02:40:45;;;;;;;;;;;13.10;85.10;;;;;;5039504;28;19924;-80
2022/11/01 02:43:28;;;;;;;;;;;13.10;85.10;;;;;;5041543;28;20027;-80
2022/11/01 02:45:54;;;;;;;;;;;13.10;85.10;;;;;;5043641;28;19983;-79
2022/11/01 02:48:19;;;;;;;;;;;13.10;85.10;;;;;;5024534;28;20548;-81
2022/11/01 02:50:45;;;;;;;;;;;13.10;85.10;;;;;;5009286;28;19963;-80
2022/11/01 02:53:11;;;;;;;;;;;13.10;85.20;;;;;;5043142;28;20388;-80
2022/11/01 02:55:36;;;;;;;;;;;13.10;85.10;;;;;;5022253;28;19925;-80
2022/11/01 02:58:02;;;;;;;;;;;13.10;85.10;;;;;;5027550;28;20000;-80
2022/11/01 03:00:27;;;;;;;;;;;13.10;85.20;;;;;;5041918;28;19966;-80
2022/11/01 03:03:06;;;;;;;;;;;13.10;85.20;;;;;;5025760;28;19920;-79
2022/11/01 03:05:55;;;;;;;;;;;13.00;85.10;;;;;;5041998;28;19921;-81
2022/11/01 03:08:21;;;;;;;;;;;13.00;85.10;;;;;;5038664;28;20012;-79
2022/11/01 03:11:07;;;;;;;;;;;13.00;85.20;;;;;;5017366;28;19936;-80
2022/11/01 03:13:35;;;;;;;;;;;13.00;85.20;;;;;;5022782;28;19996;-80
2022/11/01 03:16:07;;;;;;;;;;;13.00;85.20;;;;;;5038469;28;19928;-79
2022/11/01 03:18:33;;;;;;;;;;;13.00;85.20;;;;;;5034197;28;20301;-79
2022/11/01 03:21:00;;;;;;;;;;;13.00;85.20;;;;;;5025909;28;20180;-79
2022/11/01 03:23:30;;;;;;;;;;;13.00;85.20;;;;;;5041161;28;19988;-80
2022/11/01 03:25:56;;;;;;;;;;;13.00;85.20;;;;;;5010002;28;19924;-80
2022/11/01 03:28:27;;;;;;;;;;;13.10;85.30;;;;;;5022883;28;19924;-79
2022/11/01 03:30:57;;;;;;;;;;;13.00;85.20;;;;;;5039985;28;19928;-80
2022/11/01 03:33:23;;;;;;;;;;;13.00;86.00;;;;;;5027211;28;20481;-80
2022/11/01 03:35:49;;;;;;;;;;;13.00;85.20;;;;;;5040600;28;19948;-81
2022/11/01 03:38:16;;;;;;;;;;;13.00;85.20;;;;;;5038054;28;19955;-80
2022/11/01 03:40:43;;;;;;;;;;;13.00;85.20;;;;;;5040475;28;19921;-81
2022/11/01 03:43:09;;;;;;;;;;;13.00;85.20;;;;;;5027082;28;19923;-79
2022/11/01 03:45:35;;;;;;;;;;;13.00;85.20;;;;;;5025919;28;19928;-80
2022/11/01 03:48:01;;;;;;;;;;;13.00;85.20;;;;;;5042570;28;20278;-80
2022/11/01 03:50:27;;;;;;;;;;;13.00;85.20;;;;;;5020615;28;19925;-80
2022/11/01 03:52:52;;;;;;;;;;;13.00;85.20;;;;;;5042710;28;19975;-80
2022/11/01 03:55:18;;;;;;;;;;;13.00;85.30;;;;;;5041136;28;20317;-79
2022/11/01 03:57:44;;;;;;;;;;;13.00;85.20;;;;;;5043910;28;20432;-80
2022/11/01 04:00:11;;;;;;;;;;;13.00;85.20;;;;;;5036986;28;19924;-79
2022/11/01 04:02:36;;;;;;;;;;;13.00;85.20;;;;;;5041675;28;19917;-80
2022/11/01 04:05:03;;;;;;;;;;;13.00;85.30;;;;;;5026466;28;19929;-80
2022/11/01 04:07:28;;;;;;;;;;;13.00;85.20;;;;;;5038925;28;19921;-80
2022/11/01 04:09:54;;;;;;;;;;;13.00;85.20;;;;;;5042027;28;19924;-79
2022/11/01 04:12:19;;;;;;;;;;;13.00;85.20;;;;;;5038947;28;19928;-80
2022/11/01 04:20:31;;;;;;;;;;;13.00;85.30;;;;;;5040016;28;19932;-79
2022/11/01 04:22:57;;;;;;;;;;;13.00;85.30;;;;;;5040974;28;19928;-80
2022/11/01 04:25:23;;;;;;;;;;;13.00;85.30;;;;;;5039282;28;19937;-80
2022/11/01 04:27:48;;;;;;;;;;;13.00;85.30;;;;;;5041900;28;20302;-80
2022/11/01 04:30:14;;;;;;;;;;;13.00;85.30;;;;;;5039664;28;19932;-80
2022/11/01 04:32:43;;;;;;;;;;;13.00;85.30;;;;;;5042017;28;19917;-79
2022/11/01 04:35:11;;;;;;;;;;;13.00;85.30;;;;;;5039253;28;19928;-78
2022/11/01 04:37:36;;;;;;;;;;;13.00;85.20;;;;;;5042808;28;19924;-80
2022/11/01 04:40:02;;;;;;;;;;;13.00;85.30;;;;;;5037328;28;20066;-80
2022/11/01 04:42:28;;;;;;;;;;;13.00;85.40;;;;;;5024093;28;20297;-79
2022/11/01 04:44:53;;;;;;;;;;;13.00;85.30;;;;;;5036934;28;19924;-79
2022/11/01 04:47:18;;;;;;;;;;;13.00;85.40;;;;;;5038519;28;20345;-80
2022/11/01 04:49:44;;;;;;;;;;;13.00;85.30;;;;;;5038630;28;19951;-80
2022/11/01 04:52:09;;;;;;;;;;;13.00;85.30;;;;;;5039700;28;19917;-79
2022/11/01 04:54:35;;;;;;;;;;;13.00;85.30;;;;;;5023075;28;19917;-80
2022/11/01 04:57:00;;;;;;;;;;;12.90;85.30;;;;;;5039563;28;19916;-80
2022/11/01 04:59:26;;;;;;;;;;;12.90;85.30;;;;;;5022013;28;20388;-81
2022/11/01 05:01:51;;;;;;;;;;;12.90;85.30;;;;;;5038605;28;20875;-82
2022/11/01 05:04:17;;;;;;;;;;;12.90;85.30;;;;;;5024893;28;19983;-82
2022/11/01 05:06:42;;;;;;;;;;;12.90;85.30;;;;;;5039585;28;19940;-82
2022/11/01 05:09:08;;;;;;;;;;;12.90;85.40;;;;;;5027103;28;20016;-81
2022/11/01 05:11:33;;;;;;;;;;;12.90;85.40;;;;;;5024805;28;19920;-81
2022/11/01 05:13:58;;;;;;;;;;;12.90;85.40;;;;;;5042286;28;19924;-80
2022/11/01 05:16:24;;;;;;;;;;;12.90;85.40;;;;;;5039018;28;19925;-81
2022/11/01 05:18:49;;;;;;;;;;;12.90;85.40;;;;;;5028814;28;20293;-80
2022/11/01 05:21:15;;;;;;;;;;;12.90;85.40;;;;;;5027422;28;19925;-79
2022/11/01 05:23:40;;;;;;;;;;;12.90;85.40;;;;;;5042734;28;20429;-80
2022/11/01 05:26:06;;;;;;;;;;;12.90;85.40;;;;;;5040524;28;19925;-81
2022/11/01 05:28:31;;;;;;;;;;;12.90;85.50;;;;;;5042102;28;19917;-80
2022/11/01 05:30:57;;;;;;;;;;;12.90;85.40;;;;;;5042555;28;19974;-81
2022/11/01 05:33:22;;;;;;;;;;;12.90;85.50;;;;;;5027146;28;19978;-81
2022/11/01 05:35:48;;;;;;;;;;;12.90;85.50;;;;;;5047401;28;20328;-80
2022/11/01 05:38:13;;;;;;;;;;;12.90;85.50;;;;;;5030299;28;19948;-79
2022/11/01 05:40:39;;;;;;;;;;;12.90;86.30;;;;;;5030208;28;19925;-80
2022/11/01 05:43:04;;;;;;;;;;;12.90;85.50;;;;;;5042194;28;19920;-80
2022/11/01 05:45:30;;;;;;;;;;;12.80;85.40;;;;;;5044164;28;19929;-80
2022/11/01 05:48:00;;;;;;;;;;;12.80;85.40;;;;;;5028057;28;20008;-81
2022/11/01 05:50:25;;;;;;;;;;;12.80;85.50;;;;;;5041782;28;19928;-80
2022/11/01 05:52:51;;;;;;;;;;;12.80;85.60;;;;;;5024084;28;20770;-80
2022/11/01 05:55:16;;;;;;;;;;;12.80;85.60;;;;;;5025143;28;19917;-80
2022/11/01 05:57:42;;;;;;;;;;;12.80;85.60;;;;;;5046823;28;19917;-80
2022/11/01 06:00:08;;;;;;;;;;;12.80;85.60;;;;;;5046546;28;19943;-79
2022/11/01 06:02:33;;;;;;;;;;;12.80;85.60;;;;;;5044382;28;19923;-79
2022/11/01 06:04:59;;;;;;;;;;;12.80;85.60;;;;;;5014969;28;19921;-80
2022/11/01 06:07:25;;;;;;;;;;;12.80;85.60;;;;;;5044959;28;19983;-79
2022/11/01 06:09:51;;;;;;;;;;;12.80;85.60;;;;;;5031452;28;19970;-80
2022/11/01 06:12:16;;;;;;;;;;;12.80;85.60;;;;;;5014114;28;19925;-79
2022/11/01 06:14:41;;;;;;;;;;;12.80;85.60;;;;;;5040189;28;20576;-80
2022/11/01 06:17:11;;;;;;;;;;;12.80;85.60;;;;;;5042759;28;19963;-81
2022/11/01 06:19:37;;;;;;;;;;;12.80;85.60;;;;;;5042975;28;19921;-81
2022/11/01 06:22:02;;;;;;;;;;;12.80;85.50;;;;;;5025922;28;19962;-79
2022/11/01 06:24:28;;;;;;;;;;;12.80;85.50;;;;;;5030378;28;19921;-80
2022/11/01 06:26:53;;;;;;;;;;;12.80;85.60;;;;;;5043687;28;20611;-80
2022/11/01 06:29:19;;;;;;;;;;;12.80;85.60;;;;;;5045304;28;19924;-80
2022/11/01 06:31:44;;;;;;;;;;;12.80;85.60;;;;;;5031511;28;20754;-80
2022/11/01 06:34:09;;;;;;;;;;;12.80;85.60;;;;;;5041076;28;20398;-78
2022/11/01 06:36:35;;;;;;;;;;;12.80;85.60;;;;;;5029311;28;19921;-80
2022/11/01 06:39:00;;;;;;;;;;;12.80;85.60;;;;;;5030028;28;19924;-79
2022/11/01 06:41:26;;;;;;;;;;;12.80;85.60;;;;;;5016424;28;19940;-79
2022/11/01 06:43:51;;;;;;;;;;;12.80;85.60;;;;;;5030046;28;19925;-76
2022/11/01 06:46:17;;;;;;;;;;;12.80;85.60;;;;;;5044887;28;19927;-79
2022/11/01 06:48:42;;;;;;;;;;;12.80;85.60;;;;;;5028685;28;21046;-79
2022/11/01 06:51:08;;;;;;;;;;;12.80;85.60;;;;;;5047160;28;19917;-79
2022/11/01 06:53:33;;;;;;;;;;;12.80;85.60;;;;;;5036513;28;19967;-79
2022/11/01 06:55:59;;;;;;;;;;;12.80;85.60;;;;;;5042368;28;19967;-79
2022/11/01 06:58:25;;;;;;;;;;;12.70;85.70;;;;;;5034170;28;20026;-78
2022/11/01 07:00:50;;;;;;;;;;;12.70;85.70;;;;;;5042444;28;20334;-78
2022/11/01 07:03:15;;;;;;;;;;;12.80;85.70;;;;;;5044223;28;20011;-79
2022/11/01 07:05:41;;;;;;;;;;;12.80;85.70;;;;;;5027575;28;19956;-79
2022/11/01 07:08:07;;;;;;;;;;;12.80;85.70;;;;;;5027164;28;20294;-79
2022/11/01 07:10:34;;;;;;;;;;;12.80;85.70;;;;;;5026815;28;19932;-78
2022/11/01 07:12:59;;;;;;;;;;;12.80;85.70;;;;;;5045973;28;19928;-79
2022/11/01 07:15:26;;;;;;;;;;;12.80;85.70;;;;;;5011184;28;20297;-79
2022/11/01 07:17:55;;;;;;;;;;;12.80;85.70;;;;;;5021459;28;20555;-79
2022/11/01 07:20:21;;;;;;;;;;;12.80;85.70;;;;;;5022554;28;19945;-78
2022/11/01 07:22:46;;;;;;;;;;;12.80;85.70;;;;;;5009969;28;19979;-79
2022/11/01 07:25:12;;;;;;;;;;;12.80;85.70;;;;;;5022326;28;20379;-79
2022/11/01 07:27:37;;;;;;;;;;;12.80;85.70;;;;;;5005774;28;19921;-79
2022/11/01 07:30:03;;;;;;;;;;;12.80;85.70;;;;;;5024163;28;19939;-79
2022/11/01 07:32:28;;;;;;;;;;;12.80;85.70;;;;;;5020997;28;19936;-79
2022/11/01 07:34:54;;;;;;;;;;;12.90;85.70;;;;;;5008962;28;19920;-76
2022/11/01 07:37:19;;;;;;;;;;;12.90;85.70;;;;;;4993957;28;19916;-78
2022/11/01 07:39:45;;;;;;;;;;;12.90;85.70;;;;;;5027187;28;19983;-79
2022/11/01 07:42:11;;;;;;;;;;;12.90;85.70;;;;;;5020256;28;20004;-78
2022/11/01 07:44:37;;;;;;;;;;;12.90;85.70;;;;;;5010569;28;20013;-79
2022/11/01 07:47:02;;;;;;;;;;;12.90;85.70;;;;;;5021448;28;19981;-78
2022/11/01 07:49:28;;;;;;;;;;;12.90;85.70;;;;;;5004865;28;19929;-79
2022/11/01 07:51:53;;;;;;;;;;;12.90;85.70;;;;;;5020126;28;19929;-78
2022/11/01 07:54:19;;;;;;;;;;;13.00;85.70;;;;;;5025853;28;19971;-79
2022/11/01 07:56:44;;;;;;;;;;;13.00;85.70;;;;;;5026667;28;19921;-78
2022/11/01 07:59:10;;;;;;;;;;;13.00;85.70;;;;;;5010299;28;19925;-79
2022/11/01 08:01:35;;;;;;;;;;;13.10;85.70;;;;;;5023891;28;19925;-80
2022/11/01 08:04:01;;;;;;;;;;;13.10;85.70;;;;;;5020702;28;19932;-80
2022/11/01 08:06:26;;;;;;;;;;;13.10;85.60;;;;;;5005506;28;19925;-78
2022/11/01 08:08:52;;;;;;;;;;;13.20;85.70;;;;;;5022826;28;19932;-80
2022/11/01 08:11:17;;;;;;;;;;;13.20;85.70;;;;;;5020744;28;19917;-79
2022/11/01 08:13:43;;;;;;;;;;;13.20;86.40;;;;;;5003675;28;19925;-79
2022/11/01 08:16:08;;;;;;;;;;;13.30;85.60;;;;;;5039707;28;20397;-79
2022/11/01 08:18:34;;;;;;;;;;;13.30;85.60;;;;;;5040550;28;20546;-80
2022/11/01 08:20:59;;;;;;;;;;;13.40;85.60;;;;;;5042567;28;19920;-79
2022/11/01 08:23:25;;;;;;;;;;;13.40;85.60;;;;;;5037109;28;20470;-79
2022/11/01 08:25:50;;;;;;;;;;;13.50;85.60;;;;;;5035503;28;20412;-79
2022/11/01 08:28:16;;;;;;;;;;;13.60;85.60;;;;;;5027093;28;19917;-80
2022/11/01 08:30:42;;;;;;;;;;;13.60;85.50;;;;;;5041808;28;19925;-80
2022/11/01 08:33:08;;;;;;;;;;;13.70;85.50;;;;;;5013211;28;19970;-79
2022/11/01 08:35:33;;;;;;;;;;;13.80;85.50;;;;;;5023794;28;19917;-79
2022/11/01 08:37:59;;;;;;;;;;;13.80;85.40;;;;;;5041564;28;19917;-78
2022/11/01 08:40:25;;;;;;;;;;;13.90;85.40;;;;;;5025932;28;19925;-80
2022/11/01 08:42:50;;;;;;;;;;;13.90;85.30;;;;;;5029627;28;20275;-79
2022/11/01 08:45:16;;;;;;;;;;;14.00;85.30;;;;;;5029184;28;19956;-80
2022/11/01 08:47:41;;;;;;;;;;;14.10;85.30;;;;;;5033255;28;19938;-79
2022/11/01 08:50:08;;;;;;;;;;;14.20;85.20;;;;;;5032023;28;19917;-79
2022/11/01 08:52:33;;;;;;;;;;;14.30;85.20;;;;;;5044659;28;20002;-80
2022/11/01 08:54:58;;;;;;;;;;;14.40;85.20;;;;;;5011275;28;20501;-79
2022/11/01 08:57:24;;;;;;;;;;;14.50;85.10;;;;;;5043998;28;19916;-80
2022/11/01 08:59:49;;;;;;;;;;;14.50;84.90;;;;;;5046683;28;19928;-80
2022/11/01 09:02:15;;;;;;;;;;;14.60;84.90;;;;;;5028266;28;19920;-80
2022/11/01 09:04:41;;;;;;;;;;;14.70;84.80;;;;;;5047120;28;19928;-79
2022/11/01 09:07:06;;;;;;;;;;;14.70;84.80;;;;;;5044046;28;19921;-80
2022/11/01 09:09:34;;;;;;;;;;;14.80;84.70;;;;;;5027270;28;20410;-80
2022/11/01 09:11:59;;;;;;;;;;;14.80;84.70;;;;;;5027101;28;20003;-80
2022/11/01 09:14:25;;;;;;;;;;;14.90;84.60;;;;;;5039677;28;19939;-77
2022/11/01 09:16:50;;;;;;;;;;;14.90;84.60;;;;;;5063264;28;19921;-76
2022/11/01 09:19:17;;;;;;;;;;;15.00;84.60;;;;;;5053323;28;19927;-80
2022/11/01 09:21:43;;;;;;;;;;;15.00;84.60;;;;;;5033828;28;19920;-79
2022/11/01 09:24:09;;;;;;;;;;;15.10;84.50;;;;;;5014887;28;20059;-80
2022/11/01 09:26:35;;;;;;;;;;;15.20;84.50;;;;;;5026278;28;19933;-78
2022/11/01 09:29:00;;;;;;;;;;;15.20;84.40;;;;;;5047017;28;19940;-80
2022/11/01 09:31:27;;;;;;;;;;;15.30;84.40;;;;;;5024269;28;19921;-78
2022/11/01 09:33:53;;;;;;;;;;;15.40;84.40;;;;;;5034897;28;19917;-80
2022/11/01 09:36:20;;;;;;;;;;;15.50;84.30;;;;;;5049132;28;19967;-78
2022/11/01 09:38:45;;;;;;;;;;;15.60;84.30;;;;;;5049124;28;20281;-78
2022/11/01 09:41:29;;;;;;;;;;;15.70;84.30;;;;;;5034567;28;19917;-78
2022/11/01 09:43:55;;;;;;;;;;;15.90;84.20;;;;;;5034518;28;19986;-78
2022/11/01 09:46:21;;;;;;;;;;;16.10;84.00;;;;;;5029180;28;19932;-78
2022/11/01 09:48:47;;;;;;;;;;;16.20;83.80;;;;;;5018963;28;19928;-79
2022/11/01 09:51:22;;;;;;;;;;;16.30;83.70;;;;;;5050666;28;19917;-79
2022/11/01 09:53:48;;;;;;;;;;;16.50;83.60;;;;;;5030685;28;19917;-78
2022/11/01 09:56:16;;;;;;;;;;;16.70;83.50;;;;;;5045401;28;20300;-79
2022/11/01 09:58:54;;;;;;;;;;;16.90;83.30;;;;;;5035180;28;19916;-79
2022/11/01 10:01:38;;;;;;;;;;;17.20;83.20;;;;;;5029104;28;19917;-79
2022/11/01 10:04:22;;;;;;;;;;;17.40;83.00;;;;;;5046797;28;19916;-80
2022/11/01 10:06:58;;;;;;;;;;;17.60;82.70;;;;;;5048900;28;19921;-79
2022/11/01 10:09:27;;;;;;;;;;;17.80;82.50;;;;;;5035892;28;19924;-79
2022/11/01 10:12:06;;;;;;;;;;;18.00;82.30;;;;;;5032301;28;20531;-79
2022/11/01 10:14:41;;;;;;;;;;;18.10;82.10;;;;;;5046977;28;19921;-78
2022/11/01 10:17:14;;;;;;;;;;;18.20;81.90;;;;;;5054174;28;19927;-75
2022/11/01 10:19:44;;;;;;;;;;;18.20;81.70;;;;;;5060565;28;20012;-75
2022/11/01 10:22:17;;;;;;;;;;;18.30;81.80;;;;;;5061321;28;19928;-75
2022/11/01 10:24:57;;;;;;;;;;;18.30;81.70;;;;;;5019093;28;19925;-76
2022/11/01 10:27:25;;;;;;;;;;;18.30;81.60;;;;;;5064988;28;19943;-76
2022/11/01 10:30:00;;;;;;;;;;;18.30;81.60;;;;;;5053314;28;19917;-75
2022/11/01 10:32:44;;;;;;;;;;;18.30;81.70;;;;;;5061950;28;19982;-76
2022/11/01 10:35:23;;;;;;;;;;;18.30;81.80;;;;;;5059234;28;19921;-75
2022/11/01 10:37:51;;;;;;;;;;;18.30;81.90;;;;;;5033705;28;19917;-74
2022/11/01 10:40:18;;;;;;;;;;;18.20;81.70;;;;;;5045885;28;19971;-75
2022/11/01 10:42:46;;;;;;;;;;;18.20;81.70;;;;;;5033928;28;19972;-75
2022/11/01 10:45:15;;;;;;;;;;;18.20;81.70;;;;;;5054718;28;19927;-74
2022/11/01 10:47:42;;;;;;;;;;;18.30;82.60;;;;;;5029681;28;20423;-79
2022/11/01 10:50:10;;;;;;;;;;;18.30;81.80;;;;;;5030030;28;19918;-79
2022/11/01 10:52:54;;;;;;;;;;;18.30;81.80;;;;;;5029673;28;19988;-78
2022/11/01 10:55:38;;;;;;;;;;;18.30;81.80;;;;;;5047766;28;19932;-79
2022/11/01 10:58:13;;;;;;;;;;;18.30;81.80;;;;;;5031000;28;19972;-79
2022/11/01 11:00:38;;;;;;;;;;;18.40;81.90;;;;;;5029175;28;19917;-78
2022/11/01 11:03:17;;;;;;;;;;;18.50;81.90;;;;;;5046458;28;19927;-78
2022/11/01 11:05:42;;;;;;;;;;;18.50;81.80;;;;;;5048521;28;19917;-78
2022/11/01 11:08:12;;;;;;;;;;;18.60;81.80;;;;;;5045925;28;19939;-78
2022/11/01 11:10:37;;;;;;;;;;;18.60;81.60;;;;;;5045730;28;19913;-79
2022/11/01 11:13:04;;;;;;;;;;;18.70;81.60;;;;;;5046694;28;20013;-77
2022/11/01 11:15:40;;;;;;;;;;;18.70;81.50;;;;;;5023024;28;19960;-78
2022/11/01 11:18:10;;;;;;;;;;;18.80;81.50;;;;;;5031462;28;20088;-78
2022/11/01 11:20:36;;;;;;;;;;;18.80;81.40;;;;;;5031329;28;19966;-78
2022/11/01 11:23:02;;;;;;;;;;;18.80;82.10;;;;;;5026929;28;19917;-79
2022/11/01 11:25:31;;;;;;;;;;;18.80;81.30;;;;;;5045755;28;19925;-79
2022/11/01 11:27:57;;;;;;;;;;;18.80;81.30;;;;;;5048648;28;19923;-80
2022/11/01 11:30:26;;;;;;;;;;;18.70;81.20;;;;;;5046354;28;19928;-80
2022/11/01 11:32:52;;;;;;;;;;;18.60;81.30;;;;;;5043820;28;19924;-79
2022/11/01 11:35:22;;;;;;;;;;;18.60;81.50;;;;;;5050262;28;19927;-78
2022/11/01 11:37:51;;;;;;;;;;;18.60;81.40;;;;;;5025709;28;19917;-78
2022/11/01 11:40:19;;;;;;;;;;;18.60;81.60;;;;;;5035236;28;19928;-79
2022/11/01 11:42:47;;;;;;;;;;;18.60;81.70;;;;;;5032710;28;20050;-79
2022/11/01 11:45:21;;;;;;;;;;;18.70;81.70;;;;;;5041283;28;19919;-79
2022/11/01 11:47:47;;;;;;;;;;;18.80;80.90;;;;;;5030729;28;19921;-78
2022/11/01 11:50:18;;;;;;;;;;;18.90;81.50;;;;;;5045783;28;20501;-78
2022/11/01 11:52:44;;;;;;;;;;;19.00;81.30;;;;;;5045803;28;19942;-79
2022/11/01 11:55:25;;;;;;;;;;;19.10;81.20;;;;;;5043100;28;19917;-78
2022/11/01 11:57:50;;;;;;;;;;;19.10;81.00;;;;;;5037094;28;19927;-79
2022/11/01 12:00:20;;;;;;;;;;;19.20;80.90;;;;;;5036809;28;19928;-79
2022/11/01 12:02:46;;;;;;;;;;;19.20;80.80;;;;;;5013713;28;20359;-78
2022/11/01 12:05:15;;;;;;;;;;;19.10;80.80;;;;;;5009016;28;19916;-80
2022/11/01 12:07:45;;;;;;;;;;;19.10;80.80;;;;;;5024936;28;19916;-79
2022/11/01 12:10:27;;;;;;;;;;;19.00;80.90;;;;;;5042140;28;19925;-77
2022/11/01 12:12:53;;;;;;;;;;;18.90;80.90;;;;;;5022847;28;20411;-79
2022/11/01 12:15:26;;;;;;;;;;;18.90;80.90;;;;;;5042167;28;19928;-78
2022/11/01 12:17:51;;;;;;;;;;;18.90;80.90;;;;;;5027665;28;19917;-79
2022/11/01 12:20:18;;;;;;;;;;;18.90;81.10;;;;;;5042152;28;20011;-79
2022/11/01 12:22:48;;;;;;;;;;;18.80;81.00;;;;;;5024692;28;19924;-78
2022/11/01 12:25:18;;;;;;;;;;;18.90;81.10;;;;;;5036952;28;20437;-80
2022/11/01 12:27:54;;;;;;;;;;;19.00;81.20;;;;;;5023146;28;19928;-80
2022/11/01 12:30:21;;;;;;;;;;;19.20;81.30;;;;;;5041285;28;19925;-81
2022/11/01 12:32:47;;;;;;;;;;;19.40;81.00;;;;;;5041882;28;19917;-80
2022/11/01 12:35:31;;;;;;;;;;;19.50;80.70;;;;;;5038877;28;20466;-74
2022/11/01 12:38:16;;;;;;;;;;;19.80;80.50;;;;;;5037481;28;19959;-74
2022/11/01 12:40:41;;;;;;;;;;;20.00;80.20;;;;;;5040216;28;19924;-74
2022/11/01 12:43:14;;;;;;;;;;;20.20;80.00;;;;;;5032674;28;19944;-75
2022/11/01 12:45:44;;;;;;;;;;;20.30;79.60;;;;;;5049158;28;19935;-75
2022/11/01 12:48:11;;;;;;;;;;;20.50;79.60;;;;;;5044603;28;20046;-74
2022/11/01 12:50:54;;;;;;;;;;;20.50;79.30;;;;;;5030503;28;19917;-74
2022/11/01 12:53:33;;;;;;;;;;;20.70;79.20;;;;;;5033653;28;19921;-72
2022/11/01 12:55:59;;;;;;;;;;;20.90;79.10;;;;;;5032790;28;19921;-73
2022/11/01 12:58:25;;;;;;;;;;;21.00;78.90;;;;;;5041590;28;20721;-79
2022/11/01 13:00:59;;;;;;;;;;;21.10;78.70;;;;;;5025395;28;19927;-78
2022/11/01 13:03:31;;;;;;;;;;;21.30;78.70;;;;;;5031617;28;19921;-74
2022/11/01 13:06:00;;;;;;;;;;;21.40;78.50;;;;;;5030335;28;19921;-72
2022/11/01 13:08:40;;;;;;;;;;;21.60;78.40;;;;;;5041525;28;19976;-74
2022/11/01 13:11:32;;;;;;;;;;;21.70;78.20;;;;;;5019238;28;19921;-74
2022/11/01 13:14:03;;;;;;;;;;;21.80;78.00;;;;;;5011400;28;19925;-73
2022/11/01 13:16:30;;;;;;;;;;;21.90;77.80;;;;;;5033222;28;19929;-73
2022/11/01 13:18:59;;;;;;;;;;;21.90;77.70;;;;;;5021240;28;20627;-74
2022/11/01 13:21:30;;;;;;;;;;;21.80;77.50;;;;;;5022473;28;19921;-74
2022/11/01 13:23:58;;;;;;;;;;;21.80;77.60;;;;;;5027129;28;20008;-74
2022/11/01 13:26:25;;;;;;;;;;;21.70;77.60;;;;;;5020179;28;20305;-74
2022/11/01 13:28:57;;;;;;;;;;;21.60;77.70;;;;;;5040027;28;19920;-75
2022/11/01 13:31:22;;;;;;;;;;;21.50;77.70;;;;;;5009424;28;19925;-73
2022/11/01 13:33:51;;;;;;;;;;;21.40;77.90;;;;;;5041926;28;19964;-72
2022/11/01 13:36:17;;;;;;;;;;;21.40;78.00;;;;;;5027309;28;20320;-73
2022/11/01 13:38:43;;;;;;;;;;;21.40;78.00;;;;;;5045064;28;19917;-71
2022/11/01 13:41:21;;;;;;;;;;;21.40;78.00;;;;;;5042911;28;20038;-73
2022/11/01 13:43:53;;;;;;;;;;;21.40;78.00;;;;;;5044418;28;19917;-72
2022/11/01 13:46:19;;;;;;;;;;;21.30;77.90;;;;;;5039427;28;19921;-72
2022/11/01 13:48:47;;;;;;;;;;;21.30;77.90;;;;;;5046446;28;20489;-72
2022/11/01 13:51:25;;;;;;;;;;;21.30;77.80;;;;;;5041171;28;20562;-73
2022/11/01 13:53:53;;;;;;;;;;;21.30;77.80;;;;;;5043618;28;20475;-74
2022/11/01 13:56:27;;;;;;;;;;;21.30;77.70;;;;;;5025538;28;20019;-72
2022/11/01 13:58:53;;;;;;;;;;;21.30;77.70;;;;;;5014008;28;20409;-72
2022/11/01 14:01:29;;;;;;;;;;;21.30;77.50;;;;;;5039471;28;19930;-72
2022/11/01 14:04:07;;;;;;;;;;;21.20;77.60;;;;;;5034222;28;19921;-72
2022/11/01 14:06:35;;;;;;;;;;;21.20;77.60;;;;;;5042185;28;19932;-72
2022/11/01 14:09:20;;;;;;;;;;;21.20;77.70;;;;;;5028873;28;19925;-73
2022/11/01 14:11:48;;;;;;;;;;;21.30;77.70;;;;;;5034706;28;20386;-80
2022/11/01 14:14:29;;;;;;;;;;;21.30;77.70;;;;;;5047273;28;19965;-78
2022/11/01 14:17:13;;;;;;;;;;;21.50;77.80;;;;;;5044898;28;20686;-77
2022/11/01 14:19:39;;;;;;;;;;;21.70;77.80;;;;;;5051151;28;20420;-78
2022/11/01 14:22:13;;;;;;;;;;;21.80;77.50;;;;;;5043759;28;20012;-78
2022/11/01 14:24:50;;;;;;;;;;;22.00;77.30;;;;;;5013319;28;19921;-78
2022/11/01 14:27:20;;;;;;;;;;;22.10;77.10;;;;;;5029130;28;20012;-79